^^

..:: Storico WU ::..




Lo storico viene creato da WUnderground con i dati che la stazione Meteomincio invia al loro server. L' aggiornamento viene fatto ogni 5 minuti circa, tuttavia possono esserci intervalli pił ampi a causa di errori, interruzioni di servizio o problemi nell' invio tramite FTP.


Storico stazione MeteoMincio
Giorno Sommario per Novembre 27, 2022 Unità:  Inglese    Metrico   Entrambi
Giorno Settimana Mese Anno
  Max: Min: Media:
Temperatura: 53.6 °F 32 °F 40.8 °F
Dew Point: 44.6 °F 32 °F 37.4 °F
Umidità: 100% 66% 89%
Velocità vento: 4.3mph 0mph 1.3mph
Raffica: 6.2mph - -
Direzione- - SSW
Pressione: 30.4 in 30.2 in -
Precipitazioni: 0 in    
 
 
Tabulato Dati per Novembre 27, 2022
Ora Temperatura Dew Point Pressione Direzione Velocità vento Raffica Umidità Intensità pioggia (oraria) Info solare Situazione
00:04 37.4 °F 35.6 °F 30.4 in SSW 2.5 mph 3.7 mph 95% 0 in 0.00 W/m2 unknown
00:09 37.4 °F 35.6 °F 30.4 in SW 3.1 mph 3.7 mph 95% 0 in 0.00 W/m2 unknown
00:14 37.4 °F 35.6 °F 30.4 in SW 2.5 mph 3.7 mph 95% 0 in 0.00 W/m2 unknown
00:19 37.4 °F 35.6 °F 30.4 in SW 1.2 mph 3.1 mph 95% 0 in 0.00 W/m2 unknown
00:24 37.4 °F 35.6 °F 30.4 in Calm   1.2 mph 95% 0 in 0.00 W/m2 unknown
00:29 37.4 °F 35.6 °F 30.4 in Calm     95% 0 in 0.00 W/m2 unknown
00:34 37.4 °F 35.6 °F 30.4 in SW 2.5 mph 3.7 mph 95% 0 in 0.00 W/m2 unknown
00:39 37.4 °F 35.6 °F 30.4 in SW 3.1 mph 3.7 mph 95% 0 in 0.00 W/m2 unknown
00:44 37.4 °F 35.6 °F 30.4 in WSW 3.1 mph 3.7 mph 95% 0 in 0.00 W/m2 unknown
00:49 35.6 °F 35.6 °F 30.4 in West 2.5 mph 3.7 mph 95% 0 in 0.00 W/m2 unknown
00:54 35.6 °F 35.6 °F 30.4 in WSW 1.9 mph 3.7 mph 95% 0 in 0.00 W/m2 unknown
00:59 35.6 °F 35.6 °F 30.4 in WSW 2.5 mph 3.7 mph 95% 0 in 0.00 W/m2 unknown
01:04 35.6 °F 33.8 °F 30.4 in West 2.5 mph 3.7 mph 95% 0 in 0.00 W/m2 unknown
01:09 35.6 °F 33.8 °F 30.4 in WSW 2.5 mph 3.7 mph 95% 0 in 0.00 W/m2 unknown
01:14 35.6 °F 33.8 °F 30.4 in WSW 2.5 mph 3.7 mph 95% 0 in 0.00 W/m2 unknown
01:19 35.6 °F 33.8 °F 30.4 in West 1.9 mph 3.1 mph 95% 0 in 0.00 W/m2 unknown
01:24 35.6 °F 33.8 °F 30.4 in West 1.2 mph 2.5 mph 95% 0 in 0.00 W/m2 unknown
01:29 35.6 °F 33.8 °F 30.4 in West 1.9 mph 3.1 mph 95% 0 in 0.00 W/m2 unknown
01:34 33.8 °F 33.8 °F 30.4 in WSW 1.9 mph 3.7 mph 95% 0 in 0.00 W/m2 unknown
01:39 33.8 °F 33.8 °F 30.4 in WSW 1.9 mph 3.7 mph 95% 0 in 0.00 W/m2 unknown
01:44 35.6 °F 33.8 °F 30.4 in WSW 1.2 mph 3.1 mph 95% 0 in 0.00 W/m2 unknown
01:49 35.6 °F 33.8 °F 30.4 in Calm   1.2 mph 96% 0 in 0.00 W/m2 unknown
01:54 35.6 °F 33.8 °F 30.4 in Calm     96% 0 in 0.00 W/m2 unknown
01:59 35.6 °F 33.8 °F 30.4 in Calm     96% 0 in 0.00 W/m2 unknown
02:04 35.6 °F 33.8 °F 30.4 in Calm     96% 0 in 0.00 W/m2 unknown
02:09 35.6 °F 33.8 °F 30.4 in WSW 1.2 mph 2.5 mph 95% 0 in 0.00 W/m2 unknown
02:14 35.6 °F 33.8 °F 30.4 in WSW 1.2 mph 2.5 mph 95% 0 in 0.00 W/m2 unknown
02:19 35.6 °F 33.8 °F 30.4 in SW 1.9 mph 2.5 mph 96% 0 in 0.00 W/m2 unknown
02:24 35.6 °F 33.8 °F 30.4 in SW 1.2 mph 1.9 mph 96% 0 in 0.00 W/m2 unknown
02:29 35.6 °F 33.8 °F 30.4 in SW 1.9 mph 2.5 mph 95% 0 in 0.00 W/m2 unknown
02:34 33.8 °F 33.8 °F 30.4 in SW 1.9 mph 2.5 mph 96% 0 in 0.00 W/m2 unknown
02:39 33.8 °F 33.8 °F 30.4 in SW 1.9 mph 2.5 mph 95% 0 in 0.00 W/m2 unknown
02:44 33.8 °F 33.8 °F 30.4 in SW 2.5 mph 3.7 mph 95% 0 in 0.00 W/m2 unknown
02:49 33.8 °F 33.8 °F 30.4 in SW 2.5 mph 3.7 mph 96% 0 in 0.00 W/m2 unknown
02:54 33.8 °F 33.8 °F 30.4 in SW 1.9 mph 3.1 mph 96% 0 in 0.00 W/m2 unknown
02:59 33.8 °F 33.8 °F 30.4 in SW 0.6 mph 1.2 mph 95% 0 in 0.00 W/m2 unknown
03:04 33.8 °F 33.8 °F 30.4 in SW 1.2 mph 2.5 mph 95% 0 in 0.00 W/m2 unknown
03:09 33.8 °F 32 °F 30.4 in WSW 1.9 mph 2.5 mph 95% 0 in 0.00 W/m2 unknown
03:14 33.8 °F 32 °F 30.4 in West 1.9 mph 3.7 mph 95% 0 in 0.00 W/m2 unknown
03:19 33.8 °F 32 °F 30.4 in West 1.9 mph 3.1 mph 95% 0 in 0.00 W/m2 unknown
03:24 33.8 °F 32 °F 30.4 in West 1.9 mph 3.1 mph 96% 0 in 0.00 W/m2 unknown
03:29 33.8 °F 32 °F 30.4 in WSW 3.1 mph 3.7 mph 96% 0 in 0.00 W/m2 unknown
03:34 33.8 °F 32 °F 30.4 in WSW 3.1 mph 3.7 mph 96% 0 in 0.00 W/m2 unknown
03:39 33.8 °F 32 °F 30.4 in WSW 2.5 mph 3.7 mph 96% 0 in 0.00 W/m2 unknown
03:44 33.8 °F 33.8 °F 30.4 in West 2.5 mph 3.7 mph 96% 0 in 0.00 W/m2 unknown
03:49 33.8 °F 33.8 °F 30.4 in WSW 2.5 mph 3.7 mph 96% 0 in 0.00 W/m2 unknown
03:54 33.8 °F 33.8 °F 30.4 in WSW 1.9 mph 3.7 mph 96% 0 in 0.00 W/m2 unknown
03:59 33.8 °F 33.8 °F 30.4 in WSW 1.9 mph 3.7 mph 96% 0 in 0.00 W/m2 unknown
04:04 33.8 °F 33.8 °F 30.4 in WSW 2.5 mph 3.7 mph 96% 0 in 0.00 W/m2 unknown
04:09 33.8 °F 33.8 °F 30.4 in Calm   3.1 mph 96% 0 in 0.00 W/m2 unknown
04:14 33.8 °F 33.8 °F 30.4 in Calm     96% 0 in 0.00 W/m2 unknown
04:19 33.8 °F 33.8 °F 30.4 in Calm     96% 0 in 0.00 W/m2 unknown
04:24 33.8 °F 33.8 °F 30.4 in Calm     96% 0 in 0.00 W/m2 unknown
04:29 33.8 °F 32 °F 30.4 in Calm     96% 0 in 0.00 W/m2 unknown
04:34 33.8 °F 32 °F 30.4 in Calm     96% 0 in 0.00 W/m2 unknown
04:39 33.8 °F 32 °F 30.4 in Calm     96% 0 in 0.00 W/m2 unknown
04:44 33.8 °F 32 °F 30.4 in Calm     96% 0 in 0.00 W/m2 unknown
04:49 33.8 °F 32 °F 30.4 in Calm     96% 0 in 0.00 W/m2 unknown
04:54 33.8 °F 32 °F 30.4 in Calm     96% 0 in 0.00 W/m2 unknown
04:59 33.8 °F 32 °F 30.4 in Calm     96% 0 in 0.00 W/m2 unknown
05:04 33.8 °F 32 °F 30.4 in Calm     96% 0 in 0.00 W/m2 unknown
05:09 33.8 °F 32 °F 30.4 in Calm     96% 0 in 0.00 W/m2 unknown
05:14 33.8 °F 32 °F 30.4 in Calm     96% 0 in 0.00 W/m2 unknown
05:19 33.8 °F 32 °F 30.4 in Calm     96% 0 in 0.00 W/m2 unknown
05:24 33.8 °F 32 °F 30.4 in Calm     96% 0 in 0.00 W/m2 unknown
05:29 33.8 °F 32 °F 30.4 in Calm     96% 0 in 0.00 W/m2 unknown
05:34 33.8 °F 32 °F 30.4 in Calm     96% 0 in 0.00 W/m2 unknown
05:39 33.8 °F 33.8 °F 30.4 in Calm     100% 0 in 0.00 W/m2 unknown
05:44 33.8 °F 32 °F 30.4 in Calm     96% 0 in 0.00 W/m2 unknown
05:49 32 °F 32 °F 30.4 in Calm     96% 0 in 0.00 W/m2 unknown
05:54 32 °F 32 °F 30.4 in Calm     96% 0 in 0.00 W/m2 unknown
05:59 32 °F 32 °F 30.4 in Calm     96% 0 in 0.00 W/m2 unknown
06:04 32 °F 32 °F 30.4 in Calm     96% 0 in 0.00 W/m2 unknown
06:09 32 °F 32 °F 30.4 in Calm     96% 0 in 0.00 W/m2 unknown
06:14 32 °F 32 °F 30.4 in Calm     96% 0 in 0.00 W/m2 unknown
06:19 32 °F 32 °F 30.4 in Calm     96% 0 in 0.00 W/m2 unknown
06:24 32 °F 32 °F 30.4 in Calm     96% 0 in 0.00 W/m2 unknown
06:29 32 °F 32 °F 30.4 in Calm     96% 0 in 0.00 W/m2 unknown
06:34 32 °F 32 °F 30.4 in Calm     96% 0 in 0.00 W/m2 unknown
06:39 32 °F 32 °F 30.4 in Calm     96% 0 in 0.00 W/m2 unknown
06:44 32 °F 32 °F 30.4 in Calm     96% 0 in 0.00 W/m2 unknown
06:49 32 °F 32 °F 30.4 in Calm     96% 0 in 0.00 W/m2 unknown
06:54 32 °F 32 °F 30.4 in Calm     96% 0 in 0.00 W/m2 unknown
06:59 32 °F 32 °F 30.4 in Calm     96% 0 in 0.00 W/m2 unknown
07:04 32 °F 32 °F 30.4 in Calm   1.9 mph 96% 0 in 0.00 W/m2 unknown
07:09 32 °F 32 °F 30.4 in WSW 1.9 mph 2.5 mph 96% 0 in 0.00 W/m2 unknown
07:14 32 °F 32 °F 30.4 in WSW 1.2 mph 2.5 mph 96% 0 in 0.00 W/m2 unknown
07:19 32 °F 32 °F 30.4 in WSW 1.2 mph 2.5 mph 96% 0 in 0.00 W/m2 unknown
07:24 32 °F 32 °F 30.4 in WSW 1.2 mph 1.9 mph 96% 0 in 0.00 W/m2 unknown
07:29 32 °F 32 °F 30.4 in WSW 1.2 mph 2.5 mph 96% 0 in 0.00 W/m2 unknown
07:34 32 °F 32 °F 30.4 in WSW 1.9 mph 3.1 mph 96% 0 in 5.00 W/m2 unknown
07:39 32 °F 32 °F 30.4 in WSW 1.9 mph 3.7 mph 96% 0 in 9.00 W/m2 unknown
07:44 32 °F 32 °F 30.4 in WSW 0.6 mph 1.9 mph 96% 0 in 11.00 W/m2 unknown
07:49 32 °F 32 °F 30.4 in WSW 1.2 mph 1.2 mph 96% 0 in 12.00 W/m2 unknown
07:54 32 °F 32 °F 30.4 in Calm   1.2 mph 96% 0 in 16.00 W/m2 unknown
07:59 32 °F 32 °F 30.4 in WSW 0.6 mph 1.2 mph 96% 0 in 18.00 W/m2 unknown
08:04 33.8 °F 33.8 °F 30.4 in Calm   1.2 mph 100% 0 in 21.00 W/m2 unknown
08:09 33.8 °F 33.8 °F 30.4 in Calm   1.2 mph 100% 0 in 25.00 W/m2 unknown
08:14 33.8 °F 32 °F 30.4 in Calm     96% 0 in 30.00 W/m2 unknown
08:19 33.8 °F 32 °F 30.4 in Calm     96% 0 in 33.00 W/m2 unknown
08:24 33.8 °F 33.8 °F 30.4 in Calm     96% 0 in 37.00 W/m2 unknown
08:29 33.8 °F 33.8 °F 30.4 in Calm     96% 0 in 39.00 W/m2 unknown
08:34 33.8 °F 33.8 °F 30.4 in Calm     96% 0 in 42.00 W/m2 unknown
08:39 33.8 °F 33.8 °F 30.4 in Calm     96% 0 in 42.00 W/m2 unknown
08:44 35.6 °F 33.8 °F 30.4 in Calm     96% 0 in 47.00 W/m2 unknown
08:49 35.6 °F 33.8 °F 30.4 in Calm     96% 0 in 114.00 W/m2 unknown
08:54 35.6 °F 35.6 °F 30.4 in Calm     96% 0 in 127.00 W/m2 unknown
08:59 35.6 °F 35.6 °F 30.4 in Calm     96% 0 in 141.00 W/m2 unknown
09:04 37.4 °F 35.6 °F 30.4 in Calm     96% 0 in 148.00 W/m2 unknown
09:09 37.4 °F 35.6 °F 30.4 in Calm     96% 0 in 144.00 W/m2 unknown
09:14 37.4 °F 35.6 °F 30.4 in Calm     96% 0 in 171.00 W/m2 unknown
09:19 37.4 °F 37.4 °F 30.4 in Calm     96% 0 in 178.00 W/m2 unknown
09:24 37.4 °F 37.4 °F 30.4 in Calm     96% 0 in 183.00 W/m2 unknown
09:29 39.2 °F 37.4 °F 30.4 in WSW 1.2 mph 3.1 mph 96% 0 in 197.00 W/m2 unknown
09:34 39.2 °F 37.4 °F 30.4 in WSW 2.5 mph 3.7 mph 96% 0 in 204.00 W/m2 unknown
09:39 39.2 °F 37.4 °F 30.4 in West 2.5 mph 3.7 mph 96% 0 in 213.00 W/m2 unknown
09:44 39.2 °F 37.4 °F 30.4 in West 1.9 mph 3.7 mph 96% 0 in 225.00 W/m2 unknown
09:49 39.2 °F 39.2 °F 30.4 in West 2.5 mph 3.7 mph 95% 0 in 232.00 W/m2 unknown
09:54 41 °F 39.2 °F 30.4 in WSW 3.1 mph 3.7 mph 95% 0 in 227.00 W/m2 unknown
09:59 41 °F 39.2 °F 30.4 in WSW 3.1 mph 3.7 mph 95% 0 in 236.00 W/m2 unknown
10:04 41 °F 39.2 °F 30.4 in WSW 2.5 mph 3.7 mph 95% 0 in 241.00 W/m2 unknown
10:09 41 °F 39.2 °F 30.4 in WSW 1.2 mph 3.7 mph 95% 0 in 258.00 W/m2 unknown
10:14 41 °F 41 °F 30.4 in West 1.2 mph 2.5 mph 94% 0 in 269.00 W/m2 unknown
10:19 42.8 °F 41 °F 30.4 in Calm   1.2 mph 94% 0 in 278.00 W/m2 unknown
10:24 42.8 °F 41 °F 30.4 in Calm   1.2 mph 94% 0 in 290.00 W/m2 unknown
10:29 42.8 °F 41 °F 30.4 in Calm     93% 0 in 299.00 W/m2 unknown
10:34 44.6 °F 42.8 °F 30.4 in West 0.6 mph 1.2 mph 92% 0 in 306.00 W/m2 unknown
10:39 46.4 °F 42.8 °F 30.4 in Calm   2.5 mph 91% 0 in 313.00 W/m2 unknown
10:44 46.4 °F 42.8 °F 30.4 in WSW 1.9 mph 3.1 mph 89% 0 in 325.00 W/m2 unknown
10:49 46.4 °F 42.8 °F 30.4 in WSW 3.1 mph 3.7 mph 88% 0 in 332.00 W/m2 unknown
10:54 46.4 °F 42.8 °F 30.4 in West 2.5 mph 3.7 mph 88% 0 in 339.00 W/m2 unknown
10:59 46.4 °F 44.6 °F 30.4 in WSW 2.5 mph 3.7 mph 88% 0 in 345.00 W/m2 unknown
11:04 48.2 °F 44.6 °F 30.4 in WSW 3.1 mph 3.7 mph 88% 0 in 352.00 W/m2 unknown
11:09 48.2 °F 44.6 °F 30.4 in WSW 3.1 mph 3.7 mph 87% 0 in 360.00 W/m2 unknown
11:14 48.2 °F 44.6 °F 30.4 in SW 3.7 mph 5 mph 85% 0 in 366.00 W/m2 unknown
11:19 48.2 °F 44.6 °F 30.4 in WSW 3.1 mph 4.3 mph 84% 0 in 371.00 W/m2 unknown
11:24 50 °F 44.6 °F 30.4 in SW 3.1 mph 5 mph 83% 0 in 374.00 W/m2 unknown
11:29 50 °F 44.6 °F 30.4 in SW 2.5 mph 3.7 mph 83% 0 in 380.00 W/m2 unknown
11:34 50 °F 44.6 °F 30.4 in SW 1.9 mph 3.7 mph 83% 0 in 387.00 W/m2 unknown
11:39 50 °F 44.6 °F 30.4 in SW 3.1 mph 3.7 mph 80% 0 in 388.00 W/m2 unknown
11:44 50 °F 42.8 °F 30.4 in SW 3.1 mph 3.7 mph 77% 0 in 390.00 W/m2 unknown
11:49 50 °F 42.8 °F 30.4 in SW 1.9 mph 3.7 mph 74% 0 in 390.00 W/m2 unknown
11:54 51.8 °F 44.6 °F 30.4 in SW 1.9 mph 3.7 mph 76% 0 in 394.00 W/m2 unknown
11:59 51.8 °F 42.8 °F 30.4 in South 3.1 mph 6.2 mph 75% 0 in 396.00 W/m2 unknown
12:04 51.8 °F 42.8 °F 30.4 in South 2.5 mph 6.2 mph 73% 0 in 397.00 W/m2 unknown
12:09 51.8 °F 42.8 °F 30.4 in SSE 1.9 mph 3.7 mph 72% 0 in 397.00 W/m2 unknown
12:14 51.8 °F 42.8 °F 30.4 in SSW 3.1 mph 5 mph 74% 0 in 397.00 W/m2 unknown
12:19 51.8 °F 42.8 °F 30.4 in WSW 3.1 mph 5 mph 74% 0 in 397.00 W/m2 unknown
12:24 51.8 °F 44.6 °F 30.4 in SSW 3.1 mph 3.7 mph 75% 0 in 397.00 W/m2 unknown
12:29 51.8 °F 44.6 °F 30.4 in SSW 1.9 mph 3.7 mph 75% 0 in 397.00 W/m2 unknown
12:34 51.8 °F 44.6 °F 30.4 in SW 2.5 mph 3.7 mph 73% 0 in 396.00 W/m2 unknown
12:39 51.8 °F 44.6 °F 30.4 in WSW 3.7 mph 5 mph 73% 0 in 394.00 W/m2 unknown
12:44 53.6 °F 44.6 °F 30.4 in West 2.5 mph 5 mph 72% 0 in 394.00 W/m2 unknown
12:49 53.6 °F 44.6 °F 30.4 in West 2.5 mph 3.7 mph 71% 0 in 388.00 W/m2 unknown
12:54 53.6 °F 42.8 °F 30.4 in West 2.5 mph 3.7 mph 70% 0 in 387.00 W/m2 unknown
12:59 53.6 °F 42.8 °F 30.4 in West 1.9 mph 3.7 mph 70% 0 in 383.00 W/m2 unknown
13:04 53.6 °F 42.8 °F 30.4 in WSW 2.5 mph 3.7 mph 70% 0 in 380.00 W/m2 unknown
13:09 53.6 °F 44.6 °F 30.4 in SW 2.5 mph 3.7 mph 70% 0 in 373.00 W/m2 unknown
13:14 53.6 °F 44.6 °F 30.4 in SW 2.5 mph 3.7 mph 70% 0 in 367.00 W/m2 unknown
13:19 53.6 °F 44.6 °F 30.4 in WSW 3.7 mph 5 mph 70% 0 in 355.00 W/m2 unknown
13:24 53.6 °F 44.6 °F 30.4 in SW 4.3 mph 5 mph 69% 0 in 359.00 W/m2 unknown
13:29 53.6 °F 42.8 °F 30.4 in SSW 3.1 mph 5 mph 68% 0 in 357.00 W/m2 unknown
13:34 53.6 °F 42.8 °F 30.3 in SW 2.5 mph 3.7 mph 68% 0 in 352.00 W/m2 unknown
13:39 53.6 °F 42.8 °F 30.3 in WSW 3.1 mph 3.7 mph 68% 0 in 346.00 W/m2 unknown
13:44 53.6 °F 42.8 °F 30.3 in SW 3.1 mph 3.7 mph 67% 0 in 339.00 W/m2 unknown
13:49 53.6 °F 42.8 °F 30.3 in SW 2.5 mph 3.7 mph 67% 0 in 336.00 W/m2 unknown
13:54 53.6 °F 42.8 °F 30.3 in SW 3.1 mph 3.7 mph 67% 0 in 327.00 W/m2 unknown
13:59 53.6 °F 42.8 °F 30.3 in SW 3.1 mph 3.7 mph 66% 0 in 320.00 W/m2 unknown
14:04 53.6 °F 42.8 °F 30.3 in South 2.5 mph 3.7 mph 67% 0 in 315.00 W/m2 unknown
14:09 53.6 °F 42.8 °F 30.3 in SSW 4.3 mph 5 mph 67% 0 in 306.00 W/m2 unknown
14:14 53.6 °F 42.8 °F 30.3 in South 1.9 mph 5 mph 68% 0 in 299.00 W/m2 unknown
14:19 53.6 °F 42.8 °F 30.3 in South 3.7 mph 5 mph 68% 0 in 290.00 W/m2 unknown
14:24 53.6 °F 42.8 °F 30.3 in SSW 2.5 mph 3.7 mph 67% 0 in 283.00 W/m2 unknown
14:29 53.6 °F 42.8 °F 30.3 in South 1.9 mph 5 mph 67% 0 in 276.00 W/m2 unknown
14:34 53.6 °F 42.8 °F 30.3 in SSW 3.7 mph 5 mph 67% 0 in 267.00 W/m2 unknown
14:39 53.6 °F 42.8 °F 30.3 in South 2.5 mph 5 mph 66% 0 in 257.00 W/m2 unknown
14:44 53.6 °F 42.8 °F 30.3 in SSW 1.9 mph 3.7 mph 67% 0 in 248.00 W/m2 unknown
14:49 53.6 °F 42.8 °F 30.3 in SW 3.1 mph 5 mph 67% 0 in 239.00 W/m2 unknown
14:54 53.6 °F 42.8 °F 30.3 in SSW 3.1 mph 5 mph 67% 0 in 229.00 W/m2 unknown
14:59 53.6 °F 42.8 °F 30.3 in South 2.5 mph 3.7 mph 67% 0 in 218.00 W/m2 unknown
15:04 53.6 °F 42.8 °F 30.3 in SW 2.5 mph 3.7 mph 67% 0 in 186.00 W/m2 unknown
15:09 53.6 °F 42.8 °F 30.3 in SSW 3.7 mph 5 mph 67% 0 in 183.00 W/m2 unknown
15:14 53.6 °F 42.8 °F 30.3 in SSW 3.7 mph 5 mph 68% 0 in 165.00 W/m2 unknown
15:19 53.6 °F 42.8 °F 30.3 in SSW 3.1 mph 5 mph 68% 0 in 153.00 W/m2 unknown
15:24 53.6 °F 42.8 °F 30.3 in SSW 3.1 mph 4.3 mph 68% 0 in 139.00 W/m2 unknown
15:29 53.6 °F 42.8 °F 30.3 in South 2.5 mph 5 mph 68% 0 in 127.00 W/m2 unknown
15:34 53.6 °F 42.8 °F 30.3 in South 3.7 mph 6.2 mph 68% 0 in 113.00 W/m2 unknown
15:39 51.8 °F 42.8 °F 30.3 in South 3.1 mph 6.2 mph 68% 0 in 84.00 W/m2 unknown
15:44 51.8 °F 42.8 °F 30.3 in South 2.5 mph 5 mph 69% 0 in 39.00 W/m2 unknown
15:49 51.8 °F 42.8 °F 30.3 in South 2.5 mph 5 mph 69% 0 in 32.00 W/m2 unknown
15:54 51.8 °F 42.8 °F 30.3 in SSW 2.5 mph 3.7 mph 69% 0 in 28.00 W/m2 unknown
15:59 51.8 °F 42.8 °F 30.3 in SSW 1.2 mph 3.1 mph 70% 0 in 28.00 W/m2 unknown
16:04 51.8 °F 42.8 °F 30.3 in SSW 1.2 mph 2.5 mph 71% 0 in 23.00 W/m2 unknown
16:09 51.8 °F 42.8 °F 30.3 in SSW 1.2 mph 2.5 mph 74% 0 in 19.00 W/m2 unknown
16:14 50 °F 42.8 °F 30.3 in Calm   1.2 mph 75% 0 in 18.00 W/m2 unknown
16:19 50 °F 42.8 °F 30.3 in Calm     77% 0 in 12.00 W/m2 unknown
16:24 48.2 °F 42.8 °F 30.3 in Calm     78% 0 in 11.00 W/m2 unknown
16:29 48.2 °F 42.8 °F 30.3 in Calm     79% 0 in 9.00 W/m2 unknown
16:34 48.2 °F 42.8 °F 30.3 in Calm     81% 0 in 7.00 W/m2 unknown
16:39 48.2 °F 41 °F 30.3 in Calm     82% 0 in 0.00 W/m2 unknown
16:44 46.4 °F 41 °F 30.3 in Calm     83% 0 in 0.00 W/m2 unknown
16:49 46.4 °F 41 °F 30.3 in Calm     83% 0 in 0.00 W/m2 unknown
16:54 46.4 °F 41 °F 30.3 in Calm     85% 0 in 0.00 W/m2 unknown
16:59 44.6 °F 41 °F 30.3 in Calm     85% 0 in 0.00 W/m2 unknown
17:04 44.6 °F 41 °F 30.3 in Calm     85% 0 in 0.00 W/m2 unknown
17:09 44.6 °F 41 °F 30.3 in Calm     86% 0 in 0.00 W/m2 unknown
17:14 44.6 °F 41 °F 30.3 in SSW 1.2 mph 2.5 mph 86% 0 in 0.00 W/m2 unknown
17:19 44.6 °F 39.2 °F 30.3 in South 1.2 mph 2.5 mph 87% 0 in 0.00 W/m2 unknown
17:24 42.8 °F 39.2 °F 30.3 in SSE 0.6 mph 1.9 mph 87% 0 in 0.00 W/m2 unknown
17:29 42.8 °F 39.2 °F 30.3 in Calm   1.2 mph 87% 0 in 0.00 W/m2 unknown
17:34 42.8 °F 39.2 °F 30.3 in Calm   1.2 mph 88% 0 in 0.00 W/m2 unknown
17:39 42.8 °F 41 °F 30.3 in Calm     92% 0 in 0.00 W/m2 unknown
17:44 42.8 °F 41 °F 30.3 in Calm     90% 0 in 0.00 W/m2 unknown
17:49 42.8 °F 39.2 °F 30.3 in Calm     88% 0 in 0.00 W/m2 unknown
17:54 42.8 °F 39.2 °F 30.3 in Calm     89% 0 in 0.00 W/m2 unknown
17:59 42.8 °F 39.2 °F 30.3 in Calm     89% 0 in 0.00 W/m2 unknown
18:04 42.8 °F 39.2 °F 30.3 in Calm     89% 0 in 0.00 W/m2 unknown
18:09 42.8 °F 39.2 °F 30.3 in Calm     89% 0 in 0.00 W/m2 unknown
18:14 42.8 °F 39.2 °F 30.3 in Calm     89% 0 in 0.00 W/m2 unknown
18:19 41 °F 39.2 °F 30.3 in Calm     89% 0 in 0.00 W/m2 unknown
18:24 41 °F 39.2 °F 30.3 in Calm     90% 0 in 0.00 W/m2 unknown
18:29 41 °F 39.2 °F 30.3 in WSW 1.2 mph 2.5 mph 90% 0 in 0.00 W/m2 unknown
18:34 41 °F 39.2 °F 30.3 in West 1.9 mph 2.5 mph 90% 0 in 0.00 W/m2 unknown
18:39 41 °F 39.2 °F 30.3 in West 1.2 mph 2.5 mph 90% 0 in 0.00 W/m2 unknown
18:44 41 °F 39.2 °F 30.3 in Calm   1.2 mph 90% 0 in 0.00 W/m2 unknown
18:49 41 °F 39.2 °F 30.3 in Calm     90% 0 in 0.00 W/m2 unknown
18:54 41 °F 39.2 °F 30.3 in Calm     91% 0 in 0.00 W/m2 unknown
18:59 41 °F 39.2 °F 30.3 in Calm     91% 0 in 0.00 W/m2 unknown
19:04 41 °F 37.4 °F 30.3 in Calm     91% 0 in 0.00 W/m2 unknown
19:09 41 °F 37.4 °F 30.3 in Calm     91% 0 in 0.00 W/m2 unknown
19:14 41 °F 37.4 °F 30.3 in Calm     91% 0 in 0.00 W/m2 unknown
19:19 41 °F 37.4 °F 30.3 in Calm     92% 0 in 0.00 W/m2 unknown
19:24 41 °F 37.4 °F 30.3 in Calm     92% 0 in 0.00 W/m2 unknown
19:29 41 °F 37.4 °F 30.3 in Calm     92% 0 in 0.00 W/m2 unknown
19:34 41 °F 37.4 °F 30.3 in Calm     92% 0 in 0.00 W/m2 unknown
19:39 39.2 °F 37.4 °F 30.3 in Calm     92% 0 in 0.00 W/m2 unknown
19:44 39.2 °F 37.4 °F 30.3 in Calm     92% 0 in 0.00 W/m2 unknown
19:49 39.2 °F 37.4 °F 30.3 in Calm     92% 0 in 0.00 W/m2 unknown
19:54 39.2 °F 37.4 °F 30.3 in Calm     92% 0 in 0.00 W/m2 unknown
19:59 39.2 °F 37.4 °F 30.3 in Calm   1.2 mph 92% 0 in 0.00 W/m2 unknown
20:04 39.2 °F 37.4 °F 30.3 in NW 1.2 mph 2.5 mph 92% 0 in 0.00 W/m2 unknown
20:09 39.2 °F 37.4 °F 30.3 in NW 1.9 mph 2.5 mph 92% 0 in 0.00 W/m2 unknown
20:14 39.2 °F 37.4 °F 30.3 in NW 1.9 mph 3.7 mph 92% 0 in 0.00 W/m2 unknown
20:19 39.2 °F 37.4 °F 30.3 in NW 1.9 mph 3.1 mph 92% 0 in 0.00 W/m2 unknown
20:24 39.2 °F 37.4 °F 30.3 in NW 1.2 mph 2.5 mph 92% 0 in 0.00 W/m2 unknown
20:29 39.2 °F 37.4 °F 30.3 in ENE 2.5 mph 3.7 mph 92% 0 in 0.00 W/m2 unknown
20:34 39.2 °F 37.4 °F 30.3 in East 2.5 mph 3.7 mph 92% 0 in 0.00 W/m2 unknown
20:39 39.2 °F 35.6 °F 30.3 in East 1.9 mph 3.1 mph 92% 0 in 0.00 W/m2 unknown
20:44 37.4 °F 35.6 °F 30.3 in Calm   1.2 mph 93% 0 in 0.00 W/m2 unknown
20:49 37.4 °F 35.6 °F 30.3 in East 0.6 mph 1.2 mph 93% 0 in 0.00 W/m2 unknown
20:54 37.4 °F 35.6 °F 30.3 in East 1.2 mph 2.5 mph 93% 0 in 0.00 W/m2 unknown
20:59 37.4 °F 35.6 °F 30.3 in East 1.2 mph 2.5 mph 93% 0 in 0.00 W/m2 unknown
21:04 37.4 °F 35.6 °F 30.3 in East 0.6 mph 1.9 mph 93% 0 in 0.00 W/m2 unknown
21:09 37.4 °F 35.6 °F 30.3 in Calm   1.2 mph 93% 0 in 0.00 W/m2 unknown
21:14 37.4 °F 35.6 °F 30.3 in Calm     93% 0 in 0.00 W/m2 unknown
21:19 37.4 °F 35.6 °F 30.3 in Calm     94% 0 in 0.00 W/m2 unknown
21:24 37.4 °F 35.6 °F 30.3 in Calm     94% 0 in 0.00 W/m2 unknown
21:29 37.4 °F 35.6 °F 30.3 in East 0.6 mph 2.5 mph 94% 0 in 0.00 W/m2 unknown
21:34 37.4 °F 35.6 °F 30.3 in East 1.2 mph 2.5 mph 94% 0 in 0.00 W/m2 unknown
21:39 39.2 °F 37.4 °F 30.3 in East 1.9 mph 3.7 mph 94% 0 in 0.00 W/m2 unknown
21:44 39.2 °F 37.4 °F 30.3 in East 2.5 mph 5 mph 94% 0 in 0.00 W/m2 unknown
21:49 39.2 °F 37.4 °F 30.3 in East 2.5 mph 5 mph 94% 0 in 0.00 W/m2 unknown
21:54 39.2 °F 37.4 °F 30.3 in ENE 2.5 mph 5 mph 94% 0 in 0.00 W/m2 unknown
21:59 39.2 °F 37.4 °F 30.3 in ENE 2.5 mph 3.7 mph 94% 0 in 0.00 W/m2 unknown
22:04 39.2 °F 37.4 °F 30.2 in ENE 2.5 mph 3.7 mph 94% 0 in 0.00 W/m2 unknown
22:09 39.2 °F 37.4 °F 30.2 in East 1.9 mph 3.1 mph 94% 0 in 0.00 W/m2 unknown
22:14 39.2 °F 37.4 °F 30.2 in East 0.6 mph 2.5 mph 94% 0 in 0.00 W/m2 unknown
22:19 39.2 °F 37.4 °F 30.2 in East 1.9 mph 2.5 mph 94% 0 in 0.00 W/m2 unknown
22:24 39.2 °F 37.4 °F 30.2 in East 2.5 mph 3.7 mph 94% 0 in 0.00 W/m2 unknown
22:29 37.4 °F 37.4 °F 30.2 in East 3.1 mph 3.7 mph 94% 0 in 0.00 W/m2 unknown
22:34 39.2 °F 37.4 °F 30.2 in East 2.5 mph 3.7 mph 94% 0 in 0.00 W/m2 unknown
22:39 39.2 °F 37.4 °F 30.2 in East 2.5 mph 3.7 mph 95% 0 in 0.00 W/m2 unknown
22:44 39.2 °F 37.4 °F 30.2 in East 1.9 mph 3.1 mph 95% 0 in 0.00 W/m2 unknown
22:49 39.2 °F 37.4 °F 30.2 in East 1.9 mph 2.5 mph 94% 0 in 0.00 W/m2 unknown
22:54 39.2 °F 37.4 °F 30.2 in East 1.2 mph 2.5 mph 94% 0 in 0.00 W/m2 unknown
22:59 39.2 °F 37.4 °F 30.2 in East 1.2 mph 2.5 mph 94% 0 in 0.00 W/m2 unknown
23:04 37.4 °F 37.4 °F 30.2 in East 1.2 mph 2.5 mph 94% 0 in 0.00 W/m2 unknown
23:09 37.4 °F 37.4 °F 30.2 in East 1.2 mph 2.5 mph 94% 0 in 0.00 W/m2 unknown
23:14 37.4 °F 35.6 °F 30.2 in East 1.2 mph 2.5 mph 94% 0 in 0.00 W/m2 unknown
23:19 37.4 °F 35.6 °F 30.2 in East 1.2 mph 3.7 mph 94% 0 in 0.00 W/m2 unknown
23:24 37.4 °F 35.6 °F 30.2 in East 1.9 mph 3.7 mph 94% 0 in 0.00 W/m2 unknown
23:29 37.4 °F 35.6 °F 30.2 in WSW 1.9 mph 3.7 mph 94% 0 in 0.00 W/m2 unknown
23:34 37.4 °F 35.6 °F 30.2 in WSW 1.2 mph 3.7 mph 94% 0 in 0.00 W/m2 unknown
23:39 37.4 °F 35.6 °F 30.2 in WSW 1.2 mph 3.1 mph 94% 0 in 0.00 W/m2 unknown
23:44 37.4 °F 35.6 °F 30.2 in Calm   1.9 mph 94% 0 in 0.00 W/m2 unknown
23:49 37.4 °F 35.6 °F 30.2 in WSW 0.6 mph 1.2 mph 94% 0 in 0.00 W/m2 unknown
23:54 37.4 °F 35.6 °F 30.2 in WSW 1.2 mph 2.5 mph 94% 0 in 0.00 W/m2 unknown
23:59 37.4 °F 35.6 °F 30.2 in West 1.2 mph 2.5 mph 95% 0 in 0.00 W/m2 unknown
Stazione Meteorologica MeteoMincio Rivalta s/M (MN)
Con i complimenti di Weather Underground - 4 mb



GLOSSARIO METEOROLOGICO
Nebbia
Sospensione nell'atmosfera di piccolissime gocce d'acqua, che riduce generalmente la visibilità orizzontale sulla superficie terrestre a meno di un chilometro.
Share

Non seguire questo link o sarai bannato dal sito!